Kyokusho Maru — JL6605 — position and weather

sailwx.info

Track history (hours):
 
Tides and Currents Weather Stations Pressure Air Temp Water Temp Dewpoint Dewpoint Depression Visibility Wind Speed Wind Dir Waves Ship Positions

Kyokusho Maru

Last reported at 2015-Jun-25 07:07 UTC. Time now 2015-Jul-04 06:59 UTC.
Position N 34°08' E 134°58'.
Warning: this ship's position is 8 days out of date.

Length 77 m; draft 5.6 m.

Type: Tanker. MMSI: 431501667.

Date/timePositionNaut miles runAvg speedWind from/ knotsBaromVisibWave heightAir tempDewpointWater temp
2015-Jun-25 07:07N 34°08' E 134°58'611.1
2015-Jun-25 06:33N 34°08' E 135°06'2 0.4
2015-Jun-25 02:15N 34°07' E 135°08'1 0.5
2015-Jun-24 23:32N 34°08' E 135°06'0 0.0
2015-Jun-24 22:26N 34°08' E 135°06'0 0.0
2015-Jun-24 20:11N 34°08' E 135°06'0 0.0
2015-Jun-24 19:20N 34°08' E 135°06'0 0.0
2015-Jun-24 18:23N 34°08' E 135°06'0 0.0
2015-Jun-24 16:29N 34°08' E 135°06'0 0.0
2015-Jun-24 15:32N 34°08' E 135°06'0 0.0
2015-Jun-24 14:29N 34°08' E 135°06'0 0.0
2015-Jun-24 13:29N 34°08' E 135°06'8 7.5
2015-Jun-24 12:23N 34°08' E 134°56'8 0.2
2015-Jun-22 19:33N 34°08' E 135°06'0 0.0
2015-Jun-22 18:33N 34°08' E 135°06'0 0.1
2015-Jun-22 17:33N 34°08' E 135°07'0 0.0
2015-Jun-22 16:33N 34°08' E 135°07'0 0.0
2015-Jun-22 15:30N 34°08' E 135°07'0 0.0
2015-Jun-22 14:30N 34°08' E 135°07'0 0.0
2015-Jun-22 13:33N 34°08' E 135°07'0 0.0
2015-Jun-22 12:30N 34°08' E 135°07'0 0.0
2015-Jun-22 11:33N 34°08' E 135°07'0 0.0
2015-Jun-22 10:30N 34°08' E 135°07'0 0.0
2015-Jun-22 09:33N 34°08' E 135°07'0 0.0
2015-Jun-22 08:27N 34°08' E 135°07'0 0.0
2015-Jun-22 07:33N 34°08' E 135°07'0 0.0
2015-Jun-22 06:30N 34°08' E 135°07'  
2015-Jun-17 06:18N 34°08' E 134°57'9 1.7
2015-Jun-17 01:07N 34°07' E 135°08'1 0.5
2015-Jun-16 22:32N 34°08' E 135°06'0 0.0
2015-Jun-16 21:32N 34°08' E 135°06'0 0.1
2015-Jun-16 20:32N 34°08' E 135°06'0 0.0
2015-Jun-16 19:20N 34°08' E 135°06'0 0.0
2015-Jun-16 18:32N 34°08' E 135°06'0 0.0
2015-Jun-16 15:05N 34°08' E 135°06'0 0.0
2015-Jun-16 14:26N 34°08' E 135°06'0 0.1
2015-Jun-16 13:29N 34°08' E 135°06'0 0.0
2015-Jun-16 12:26N 34°08' E 135°06'0 0.0
2015-Jun-16 11:32N 34°08' E 135°06'0 0.0
2015-Jun-16 10:29N 34°08' E 135°06'0 0.0
2015-Jun-16 09:32N 34°08' E 135°06'0 0.0
2015-Jun-16 08:32N 34°08' E 135°06'0 0.0
2015-Jun-16 07:20N 34°08' E 135°06'0 0.0
2015-Jun-16 06:32N 34°08' E 135°06'0 0.1
2015-Jun-16 05:14N 34°08' E 135°06'0 0.0
2015-Jun-16 04:32N 34°08' E 135°06'0 0.0
2015-Jun-16 03:29N 34°08' E 135°06'0 0.0
2015-Jun-16 02:32N 34°08' E 135°06'0 0.0
2015-Jun-16 01:11N 34°08' E 135°06'0 0.0
2015-Jun-15 22:32N 34°08' E 135°06'0 0.0
2015-Jun-15 21:29N 34°08' E 135°06'0 0.0
2015-Jun-15 20:32N 34°08' E 135°06'0 0.0
2015-Jun-15 19:32N 34°08' E 135°06'0 0.0
2015-Jun-15 18:32N 34°08' E 135°06'4 4.1
2015-Jun-15 17:32N 34°07' E 135°01'  
Track history (hours):
 
Tides and Currents Weather Stations Pressure Air Temp Water Temp Dewpoint Dewpoint Depression Visibility Wind Speed Wind Dir Waves Ship Positions

Kyokusho Maru

Last reported at 2015-Jun-25 07:07 UTC. Time now 2015-Jul-04 06:59 UTC.
Position N 34°08' E 134°58'.
Warning: this ship's position is 8 days out of date.

Length 77 m; draft 5.6 m.

Type: Tanker. MMSI: 431501667.

Date/timePositionNaut miles runAvg speedWind from/ knotsBaromVisibWave heightAir tempDewpointWater temp
2015-Jun-25 07:07N 34°08' E 134°58'611.1
2015-Jun-25 06:33N 34°08' E 135°06'2 0.4
2015-Jun-25 02:15N 34°07' E 135°08'1 0.5
2015-Jun-24 23:32N 34°08' E 135°06'0 0.0
2015-Jun-24 22:26N 34°08' E 135°06'0 0.0
2015-Jun-24 20:11N 34°08' E 135°06'0 0.0
2015-Jun-24 19:20N 34°08' E 135°06'0 0.0
2015-Jun-24 18:23N 34°08' E 135°06'0 0.0
2015-Jun-24 16:29N 34°08' E 135°06'0 0.0
2015-Jun-24 15:32N 34°08' E 135°06'0 0.0
2015-Jun-24 14:29N 34°08' E 135°06'0 0.0
2015-Jun-24 13:29N 34°08' E 135°06'8 7.5
2015-Jun-24 12:23N 34°08' E 134°56'8 0.2
2015-Jun-22 19:33N 34°08' E 135°06'0 0.0
2015-Jun-22 18:33N 34°08' E 135°06'0 0.1
2015-Jun-22 17:33N 34°08' E 135°07'0 0.0
2015-Jun-22 16:33N 34°08' E 135°07'0 0.0
2015-Jun-22 15:30N 34°08' E 135°07'0 0.0
2015-Jun-22 14:30N 34°08' E 135°07'0 0.0
2015-Jun-22 13:33N 34°08' E 135°07'0 0.0
2015-Jun-22 12:30N 34°08' E 135°07'0 0.0
2015-Jun-22 11:33N 34°08' E 135°07'0 0.0
2015-Jun-22 10:30N 34°08' E 135°07'0 0.0
2015-Jun-22 09:33N 34°08' E 135°07'0 0.0
2015-Jun-22 08:27N 34°08' E 135°07'0 0.0
2015-Jun-22 07:33N 34°08' E 135°07'0 0.0
2015-Jun-22 06:30N 34°08' E 135°07'  
2015-Jun-17 06:18N 34°08' E 134°57'9 1.7
2015-Jun-17 01:07N 34°07' E 135°08'1 0.5
2015-Jun-16 22:32N 34°08' E 135°06'0 0.0
2015-Jun-16 21:32N 34°08' E 135°06'0 0.1
2015-Jun-16 20:32N 34°08' E 135°06'0 0.0
2015-Jun-16 19:20N 34°08' E 135°06'0 0.0
2015-Jun-16 18:32N 34°08' E 135°06'0 0.0
2015-Jun-16 15:05N 34°08' E 135°06'0 0.0
2015-Jun-16 14:26N 34°08' E 135°06'0 0.1
2015-Jun-16 13:29N 34°08' E 135°06'0 0.0
2015-Jun-16 12:26N 34°08' E 135°06'0 0.0
2015-Jun-16 11:32N 34°08' E 135°06'0 0.0
2015-Jun-16 10:29N 34°08' E 135°06'0 0.0
2015-Jun-16 09:32N 34°08' E 135°06'0 0.0
2015-Jun-16 08:32N 34°08' E 135°06'0 0.0
2015-Jun-16 07:20N 34°08' E 135°06'0 0.0
2015-Jun-16 06:32N 34°08' E 135°06'0 0.1
2015-Jun-16 05:14N 34°08' E 135°06'0 0.0
2015-Jun-16 04:32N 34°08' E 135°06'0 0.0
2015-Jun-16 03:29N 34°08' E 135°06'0 0.0
2015-Jun-16 02:32N 34°08' E 135°06'0 0.0
2015-Jun-16 01:11N 34°08' E 135°06'0 0.0
2015-Jun-15 22:32N 34°08' E 135°06'0 0.0
2015-Jun-15 21:29N 34°08' E 135°06'0 0.0
2015-Jun-15 20:32N 34°08' E 135°06'0 0.0
2015-Jun-15 19:32N 34°08' E 135°06'0 0.0
2015-Jun-15 18:32N 34°08' E 135°06'4 4.1
2015-Jun-15 17:32N 34°07' E 135°01'  

Dump ship's entire track history